createdAt,value
2022-11-14T00:01:26.650Z,47.90
2022-11-14T00:03:53.097Z,47.80
2022-11-14T00:06:19.541Z,47.70
2022-11-14T00:08:45.970Z,47.80
2022-11-14T00:11:12.419Z,47.40
2022-11-14T00:13:38.862Z,48.10
2022-11-14T00:16:05.284Z,48.20
2022-11-14T00:18:31.968Z,47.50
2022-11-14T00:20:58.565Z,47.70
2022-11-14T00:23:24.992Z,47.10
2022-11-14T00:25:51.436Z,47.00
2022-11-14T00:28:17.864Z,47.70
2022-11-14T00:30:44.278Z,47.40
2022-11-14T00:33:11.459Z,47.80
2022-11-14T00:35:40.073Z,48.30
2022-11-14T00:38:06.496Z,47.20
2022-11-14T00:40:32.939Z,47.40
2022-11-14T00:42:59.393Z,47.90
2022-11-14T00:45:25.820Z,47.40
2022-11-14T00:47:52.252Z,47.90
2022-11-14T00:50:18.690Z,48.20
2022-11-14T00:52:45.116Z,48.10
2022-11-14T00:55:11.537Z,47.70
2022-11-14T00:57:37.975Z,47.30
2022-11-14T01:02:31.355Z,48.00
2022-11-14T01:04:57.800Z,47.70
2022-11-14T01:07:24.247Z,47.00
2022-11-14T01:09:50.687Z,47.60
2022-11-14T01:12:17.155Z,46.80
2022-11-14T01:14:43.568Z,47.20
2022-11-14T01:17:10.025Z,47.00
2022-11-14T01:19:36.484Z,47.10
2022-11-14T01:22:06.211Z,47.60
2022-11-14T01:24:32.983Z,47.30
2022-11-14T01:26:59.411Z,47.20
2022-11-14T01:29:25.827Z,47.50
2022-11-14T01:31:52.246Z,47.40
2022-11-14T01:34:18.656Z,46.80
2022-11-14T01:36:45.090Z,47.10
2022-11-14T01:39:11.540Z,47.90
2022-11-14T01:41:37.954Z,46.70
2022-11-14T01:44:04.402Z,46.70
2022-11-14T01:51:24.774Z,47.10
2022-11-14T01:53:51.191Z,48.00
2022-11-14T01:56:17.621Z,48.00
2022-11-14T02:01:11.108Z,47.00
2022-11-14T02:03:37.589Z,47.40
2022-11-14T02:06:04.031Z,46.50
2022-11-14T02:10:57.974Z,46.60
2022-11-14T02:13:24.424Z,46.30
2022-11-14T02:15:50.849Z,47.10
2022-11-14T02:18:17.271Z,47.10
2022-11-14T02:20:43.711Z,47.20
2022-11-14T02:23:10.289Z,47.40
2022-11-14T02:25:36.765Z,47.40
2022-11-14T02:28:03.189Z,46.50
2022-11-14T02:30:29.635Z,46.70
2022-11-14T02:33:11.957Z,46.40
2022-11-14T02:35:38.524Z,47.00
2022-11-14T02:38:04.964Z,46.30
2022-11-14T02:40:31.407Z,46.50
2022-11-14T02:42:57.834Z,46.60
2022-11-14T02:45:24.278Z,46.00
2022-11-14T02:47:50.707Z,47.20
2022-11-14T02:50:17.118Z,47.20
2022-11-14T02:52:43.544Z,46.30
2022-11-14T02:55:09.968Z,47.20
2022-11-14T02:57:36.409Z,47.10
2022-11-14T03:00:02.821Z,46.60
2022-11-14T03:02:29.254Z,46.10
2022-11-14T03:04:55.667Z,46.40
2022-11-14T03:07:22.167Z,46.40
2022-11-14T03:09:48.683Z,47.40
2022-11-14T03:12:15.130Z,47.10
2022-11-14T03:14:41.547Z,46.50
2022-11-14T03:17:07.970Z,47.50
2022-11-14T03:19:34.394Z,49.00
2022-11-14T03:22:00.816Z,46.90
2022-11-14T03:26:54.202Z,46.90
2022-11-14T03:29:20.648Z,47.20
2022-11-14T03:31:47.057Z,47.00
2022-11-14T03:34:13.498Z,47.20
2022-11-14T03:36:39.926Z,47.50
2022-11-14T03:39:06.357Z,47.10
2022-11-14T03:41:32.808Z,46.90
2022-11-14T03:44:00.471Z,46.90
2022-11-14T03:46:26.985Z,46.80
2022-11-14T03:48:53.407Z,49.00
2022-11-14T03:51:19.854Z,46.90
2022-11-14T03:56:13.250Z,46.90
2022-11-14T03:58:39.663Z,46.30
2022-11-14T04:01:06.144Z,46.60
2022-11-14T04:03:32.622Z,46.10
2022-11-14T04:08:26.017Z,46.70
2022-11-14T04:10:52.450Z,46.40
2022-11-14T04:13:18.899Z,46.10
2022-11-14T04:15:45.323Z,45.90
2022-11-14T04:18:11.764Z,46.30
2022-11-14T04:20:38.193Z,46.40
2022-11-14T04:23:04.629Z,46.60
2022-11-14T04:25:31.045Z,47.00
2022-11-14T04:27:57.471Z,45.80
2022-11-14T04:30:23.919Z,46.00
2022-11-14T04:32:50.339Z,46.30
2022-11-14T04:35:16.777Z,46.70
2022-11-14T04:37:43.196Z,46.30
2022-11-14T04:40:09.622Z,45.30
2022-11-14T04:42:36.051Z,45.90
2022-11-14T04:47:29.509Z,45.90
2022-11-14T04:49:55.951Z,46.10
2022-11-14T04:52:22.378Z,46.10
2022-11-14T04:54:48.818Z,46.70
2022-11-14T04:57:15.259Z,45.50
2022-11-14T04:59:41.678Z,46.40
2022-11-14T05:02:08.128Z,46.20
2022-11-14T05:04:34.571Z,45.70
2022-11-14T05:07:01.044Z,46.20
2022-11-14T05:09:27.557Z,45.80
2022-11-14T05:11:53.978Z,46.20
2022-11-14T05:14:20.411Z,46.50
2022-11-14T05:16:46.822Z,46.60
2022-11-14T05:19:13.266Z,46.50
2022-11-14T05:24:08.758Z,46.30
2022-11-14T05:26:35.187Z,46.80
2022-11-14T05:29:01.612Z,46.10
2022-11-14T05:31:28.056Z,45.90
2022-11-14T05:36:21.460Z,46.80
2022-11-14T05:38:47.915Z,45.60
2022-11-14T05:41:14.372Z,45.90
2022-11-14T05:43:40.803Z,46.40
2022-11-14T05:46:07.223Z,46.20
2022-11-14T05:48:33.851Z,46.20
2022-11-14T05:51:00.363Z,46.50
2022-11-14T05:53:26.781Z,46.30
2022-11-14T05:55:53.197Z,46.20
2022-11-14T05:58:19.615Z,45.90
2022-11-14T06:00:53.498Z,46.60
2022-11-14T06:03:20.505Z,46.40
2022-11-14T06:05:46.936Z,46.90
2022-11-14T06:08:13.386Z,46.30
2022-11-14T06:13:09.098Z,46.70
2022-11-14T06:15:35.536Z,47.20
2022-11-14T06:18:01.975Z,46.90
2022-11-14T06:20:28.395Z,46.20
2022-11-14T06:22:54.847Z,46.50
2022-11-14T06:25:21.279Z,47.20
2022-11-14T06:27:47.723Z,46.70
2022-11-14T06:30:14.176Z,47.20
2022-11-14T06:35:07.707Z,47.20
2022-11-14T06:37:34.136Z,47.70
2022-11-14T06:40:00.610Z,47.00
2022-11-14T06:44:54.016Z,46.80
2022-11-14T06:47:20.469Z,46.70
2022-11-14T06:49:46.904Z,46.50
2022-11-14T06:54:40.307Z,46.50
2022-11-14T06:57:06.744Z,47.00
2022-11-14T06:59:33.172Z,46.80
2022-11-14T07:01:59.619Z,46.10
2022-11-14T07:04:26.100Z,46.50
2022-11-14T07:06:52.558Z,46.90
2022-11-14T07:09:19.066Z,46.40
2022-11-14T07:11:45.493Z,47.30
2022-11-14T07:16:38.883Z,46.20
2022-11-14T07:19:05.311Z,45.70
2022-11-14T07:21:31.738Z,46.20
2022-11-14T07:23:58.352Z,46.50
2022-11-14T07:28:54.442Z,45.90
2022-11-14T07:31:22.016Z,46.00
2022-11-14T07:33:48.446Z,46.80
2022-11-14T07:38:41.965Z,46.80
2022-11-14T07:41:08.605Z,46.40
2022-11-14T07:43:35.037Z,47.10
2022-11-14T07:46:01.463Z,46.10
2022-11-14T07:48:28.214Z,45.90
2022-11-14T07:50:55.009Z,46.50
2022-11-14T07:53:21.439Z,46.30
2022-11-14T07:58:14.838Z,46.80
2022-11-14T08:00:41.277Z,45.80
2022-11-14T08:03:07.761Z,46.90
2022-11-14T08:05:34.203Z,45.90
2022-11-14T08:08:00.619Z,45.50
2022-11-14T08:10:32.327Z,46.40
2022-11-14T08:13:25.304Z,46.70
2022-11-14T08:18:13.802Z,47.00
2022-11-14T08:20:40.257Z,46.60
2022-11-14T08:23:06.683Z,46.20
2022-11-14T08:28:00.323Z,46.20
2022-11-14T08:30:27.160Z,46.70
2022-11-14T08:32:53.790Z,46.90
2022-11-14T08:35:20.236Z,46.50
2022-11-14T08:37:46.692Z,46.20
2022-11-14T08:40:13.110Z,46.60
2022-11-14T08:45:08.969Z,46.00
2022-11-14T08:47:35.420Z,46.10
2022-11-14T08:50:01.853Z,47.00
2022-11-14T08:54:55.277Z,46.00
2022-11-14T08:57:21.719Z,46.20
2022-11-14T08:59:48.133Z,46.00
2022-11-14T09:02:14.638Z,46.40
2022-11-14T09:04:41.161Z,47.10
2022-11-14T09:07:07.686Z,46.20
2022-11-14T09:09:34.199Z,46.30
2022-11-14T09:14:27.907Z,46.20
2022-11-14T09:16:54.339Z,47.30
2022-11-14T09:19:20.788Z,47.80
2022-11-14T09:24:14.260Z,47.40
2022-11-14T09:26:40.710Z,47.90
2022-11-14T09:29:07.166Z,47.20
2022-11-14T09:34:00.574Z,48.00
2022-11-14T09:36:27.044Z,47.80
2022-11-14T09:38:53.503Z,47.70
2022-11-14T09:43:46.923Z,47.80
2022-11-14T09:46:13.347Z,48.20
2022-11-14T09:48:39.800Z,48.10
2022-11-14T09:53:33.221Z,47.40
2022-11-14T09:55:59.653Z,47.40
2022-11-14T09:58:26.098Z,47.10
2022-11-14T10:05:46.437Z,47.60
2022-11-14T10:08:12.862Z,47.60
2022-11-14T10:10:39.321Z,47.60
2022-11-14T10:13:05.748Z,47.90
2022-11-14T10:15:34.051Z,47.70
2022-11-14T10:18:00.727Z,47.50
2022-11-14T10:23:00.064Z,47.20
2022-11-14T10:27:58.476Z,47.20
2022-11-14T10:30:27.424Z,48.20
2022-11-14T10:32:53.874Z,47.50
2022-11-14T10:35:20.303Z,48.10
2022-11-14T10:37:46.759Z,47.40
2022-11-14T10:40:13.210Z,47.70
2022-11-14T10:42:39.640Z,48.50
2022-11-14T10:45:06.068Z,47.60
2022-11-14T10:47:32.500Z,48.20
2022-11-14T10:49:58.933Z,47.60
2022-11-14T10:52:25.363Z,46.90
2022-11-14T10:54:51.811Z,47.10
2022-11-14T10:57:18.250Z,47.90
2022-11-14T11:02:11.705Z,47.60
2022-11-14T11:04:38.181Z,47.30
2022-11-14T11:07:04.673Z,47.70
2022-11-14T11:09:31.148Z,47.60
2022-11-14T11:11:57.643Z,47.50
2022-11-14T11:14:24.100Z,47.70
2022-11-14T11:16:50.543Z,47.80
2022-11-14T11:19:16.963Z,47.60
2022-11-14T11:21:43.481Z,48.40
2022-11-14T11:26:37.016Z,47.90
2022-11-14T11:29:03.439Z,47.70
2022-11-14T11:31:29.856Z,48.10
2022-11-14T11:33:56.301Z,48.80
2022-11-14T11:36:22.736Z,48.90
2022-11-14T11:38:49.187Z,49.00
2022-11-14T11:41:25.859Z,48.10
2022-11-14T11:44:00.203Z,48.60
2022-11-14T11:46:27.022Z,48.50
2022-11-14T11:48:53.717Z,48.20
2022-11-14T11:51:20.158Z,48.20
2022-11-14T11:53:46.576Z,47.60
2022-11-14T11:58:39.982Z,48.50
2022-11-14T12:01:06.439Z,47.50
2022-11-14T12:03:33.134Z,48.40
2022-11-14T12:05:59.842Z,48.70
2022-11-14T12:08:26.268Z,48.60
2022-11-14T12:10:52.692Z,48.00
2022-11-14T12:13:19.115Z,48.20
2022-11-14T12:15:45.555Z,47.80
2022-11-14T12:20:40.402Z,48.30
2022-11-14T12:23:06.843Z,48.30
2022-11-14T12:25:33.265Z,47.50
2022-11-14T12:27:59.807Z,48.90
2022-11-14T12:35:20.255Z,49.20
2022-11-14T12:40:17.834Z,47.80
2022-11-14T12:42:44.287Z,48.40
2022-11-14T12:45:10.728Z,48.20
2022-11-14T12:50:04.117Z,47.90
2022-11-14T12:52:32.826Z,48.60
2022-11-14T12:57:26.374Z,48.90
2022-11-14T12:59:54.263Z,48.40
2022-11-14T13:02:22.544Z,47.90
2022-11-14T13:04:49.228Z,48.30
2022-11-14T13:07:15.682Z,48.80
2022-11-14T13:09:42.160Z,48.30
2022-11-14T13:12:08.584Z,48.20
2022-11-14T13:14:35.043Z,48.00
2022-11-14T13:17:01.478Z,48.50
2022-11-14T13:19:27.895Z,48.80
2022-11-14T13:24:21.273Z,48.20
2022-11-14T13:26:47.726Z,48.20
2022-11-14T13:29:14.217Z,48.20
2022-11-14T13:34:07.606Z,48.50
2022-11-14T13:36:34.028Z,48.60
2022-11-14T13:39:00.454Z,48.90
2022-11-14T13:41:26.904Z,48.20
2022-11-14T13:46:20.328Z,49.30
2022-11-14T13:48:47.755Z,48.30
2022-11-14T13:51:36.660Z,48.30
2022-11-14T13:56:27.673Z,48.90
2022-11-14T14:01:21.222Z,48.70
2022-11-14T14:03:47.671Z,48.80
2022-11-14T14:06:14.124Z,48.30
2022-11-14T14:11:07.589Z,48.20
2022-11-14T14:13:34.017Z,49.90
2022-11-14T14:16:00.468Z,49.30
2022-11-14T14:18:26.915Z,49.00
2022-11-14T14:20:53.391Z,48.30
2022-11-14T14:25:46.771Z,48.90
2022-11-14T14:30:40.158Z,48.90
2022-11-14T14:33:06.591Z,49.10
2022-11-14T14:35:38.928Z,49.20
2022-11-14T14:38:07.029Z,48.70
2022-11-14T14:43:00.422Z,49.10
2022-11-14T14:45:26.849Z,49.60
2022-11-14T14:47:53.314Z,48.80
2022-11-14T14:52:46.732Z,49.20
2022-11-14T14:55:15.503Z,48.90
2022-11-14T15:00:08.940Z,49.00
2022-11-14T15:02:35.372Z,48.80
2022-11-14T15:05:01.813Z,49.40
2022-11-14T15:09:55.333Z,49.10
2022-11-14T15:12:21.776Z,49.70
2022-11-14T15:14:48.209Z,48.90
2022-11-14T15:17:14.657Z,48.90
2022-11-14T15:19:41.080Z,48.40
2022-11-14T15:22:07.611Z,48.80
2022-11-14T15:24:34.039Z,50.10
2022-11-14T15:27:00.455Z,49.70
2022-11-14T15:29:26.875Z,50.00
2022-11-14T15:31:53.320Z,49.50
2022-11-14T15:36:46.719Z,49.90
2022-11-14T15:39:13.160Z,49.80
2022-11-14T15:41:39.591Z,49.10
2022-11-14T15:44:06.026Z,49.80
2022-11-14T15:46:32.496Z,49.10
2022-11-14T15:48:58.940Z,49.70
2022-11-14T15:51:25.389Z,49.70
2022-11-14T15:53:51.867Z,49.90
2022-11-14T15:58:49.190Z,48.90
2022-11-14T16:01:16.030Z,49.50
2022-11-14T16:03:42.500Z,49.50
2022-11-14T16:08:35.924Z,48.60
2022-11-14T16:11:04.134Z,49.60
2022-11-14T16:13:30.804Z,49.50
2022-11-14T16:15:57.418Z,49.00
2022-11-14T16:20:50.832Z,48.80
2022-11-14T16:23:17.274Z,49.50
2022-11-14T16:25:43.725Z,48.50
2022-11-14T16:28:10.159Z,48.80
2022-11-14T16:30:36.583Z,49.00
2022-11-14T16:33:03.028Z,49.10
2022-11-14T16:35:29.470Z,49.90
2022-11-14T16:40:22.891Z,49.50
2022-11-14T16:42:49.321Z,49.60
2022-11-14T16:45:15.851Z,49.70
2022-11-14T16:47:42.317Z,49.60
2022-11-14T16:50:08.741Z,48.60
2022-11-14T16:52:35.166Z,48.10
2022-11-14T16:55:01.646Z,47.40
2022-11-14T16:57:28.090Z,48.40
2022-11-14T16:59:54.560Z,48.80
2022-11-14T17:04:48.133Z,48.60
2022-11-14T17:07:16.748Z,49.30
2022-11-14T17:09:46.620Z,48.80
2022-11-14T17:14:40.074Z,49.00
2022-11-14T17:17:06.505Z,48.20
2022-11-14T17:19:35.723Z,49.70
2022-11-14T17:22:02.147Z,49.30
2022-11-14T17:29:25.066Z,48.80
2022-11-14T17:31:51.501Z,49.20
2022-11-14T17:34:17.935Z,48.60
2022-11-14T17:36:44.361Z,49.50
2022-11-14T17:39:10.788Z,49.30
2022-11-14T17:41:37.223Z,49.20
2022-11-14T17:44:03.665Z,48.50
2022-11-14T17:46:30.113Z,48.10
2022-11-14T17:48:56.548Z,48.80
2022-11-14T17:51:22.987Z,49.00
2022-11-14T17:53:51.296Z,48.90
2022-11-14T17:56:17.729Z,48.20
2022-11-14T17:58:44.204Z,49.00
2022-11-14T18:06:04.733Z,48.10
2022-11-14T18:08:31.491Z,48.80
2022-11-14T18:10:58.141Z,49.10
2022-11-14T18:13:24.568Z,48.50
2022-11-14T18:20:44.993Z,49.20
2022-11-14T18:23:11.431Z,48.60
2022-11-14T18:25:37.894Z,48.60
2022-11-14T18:30:41.587Z,48.90
2022-11-14T18:33:08.558Z,48.90
2022-11-14T18:35:35.007Z,48.10
2022-11-14T18:38:04.415Z,49.30
2022-11-14T18:40:30.877Z,49.10
2022-11-14T18:42:57.314Z,49.00
2022-11-14T18:45:23.763Z,48.60
2022-11-14T18:47:50.230Z,49.60
2022-11-14T18:50:16.652Z,49.10
2022-11-14T18:55:10.041Z,49.40
2022-11-14T18:57:36.477Z,47.90
2022-11-14T19:00:02.923Z,49.80
2022-11-14T19:02:31.528Z,49.40
2022-11-14T19:04:58.163Z,49.00
2022-11-14T19:07:24.694Z,49.10
2022-11-14T19:09:51.241Z,50.10
2022-11-14T19:12:17.675Z,50.00
2022-11-14T19:17:11.093Z,49.70
2022-11-14T19:19:37.554Z,49.50
2022-11-14T19:22:03.985Z,49.20
2022-11-14T19:24:30.428Z,48.60
2022-11-14T19:26:56.876Z,48.80
2022-11-14T19:29:23.313Z,49.60
2022-11-14T19:31:49.754Z,49.20
2022-11-14T19:34:16.182Z,48.80
2022-11-14T19:36:59.399Z,48.40
2022-11-14T19:39:26.678Z,49.00
2022-11-14T19:41:53.144Z,48.90
2022-11-14T19:44:19.574Z,49.00
2022-11-14T19:46:47.764Z,50.90
2022-11-14T19:49:14.705Z,48.90
2022-11-14T19:51:41.136Z,48.70
2022-11-14T19:59:01.537Z,50.80
2022-11-14T20:01:28.010Z,48.20
2022-11-14T20:03:54.480Z,48.40
2022-11-14T20:08:47.903Z,48.60
2022-11-14T20:11:14.366Z,48.30
2022-11-14T20:13:40.828Z,48.90
2022-11-14T20:16:07.311Z,48.70
2022-11-14T20:18:33.746Z,48.40
2022-11-14T20:21:00.219Z,48.70
2022-11-14T20:23:26.663Z,48.10
2022-11-14T20:25:53.131Z,48.80
2022-11-14T20:28:19.577Z,48.70
2022-11-14T20:30:46.061Z,48.40
2022-11-14T20:33:12.529Z,48.70
2022-11-14T20:38:05.982Z,48.70
2022-11-14T20:40:32.422Z,49.30
2022-11-14T20:42:58.856Z,49.00
2022-11-14T20:47:52.255Z,49.10
2022-11-14T20:50:18.690Z,48.60
2022-11-14T20:52:45.148Z,48.10
2022-11-14T20:55:12.020Z,48.80
2022-11-14T20:57:38.596Z,49.40
2022-11-14T21:00:05.035Z,48.90
2022-11-14T21:02:31.493Z,48.90
2022-11-14T21:07:24.968Z,48.60
2022-11-14T21:09:51.412Z,49.00
2022-11-14T21:12:17.859Z,49.20
2022-11-14T21:14:44.317Z,48.00
2022-11-14T21:19:37.769Z,48.30
2022-11-14T21:22:04.207Z,48.70
2022-11-14T21:24:31.457Z,49.00
2022-11-14T21:26:57.957Z,49.10
2022-11-14T21:29:24.399Z,48.70
2022-11-14T21:31:50.832Z,48.50
2022-11-14T21:36:45.832Z,49.40
2022-11-14T21:39:12.980Z,48.90
2022-11-14T21:44:06.618Z,48.20
2022-11-14T21:46:33.068Z,49.20
2022-11-14T21:51:26.481Z,47.90
2022-11-14T21:53:52.985Z,48.30
2022-11-14T21:56:19.431Z,48.60
2022-11-14T21:58:45.858Z,48.80
2022-11-14T22:01:12.382Z,48.10
2022-11-14T22:03:38.899Z,48.90
2022-11-14T22:06:05.328Z,48.80
2022-11-14T22:08:31.770Z,48.50
2022-11-14T22:10:58.201Z,47.50
2022-11-14T22:13:24.656Z,48.40
2022-11-14T22:18:18.174Z,48.10
2022-11-14T22:20:44.615Z,47.60
2022-11-14T22:25:38.063Z,48.20
2022-11-14T22:28:04.494Z,48.10
2022-11-14T22:30:30.951Z,48.20
2022-11-14T22:32:57.375Z,48.90
2022-11-14T22:37:50.859Z,48.80
2022-11-14T22:45:11.248Z,49.10
2022-11-14T22:47:37.686Z,48.10
2022-11-14T22:50:04.112Z,48.40
2022-11-14T22:52:30.542Z,48.30
2022-11-14T22:54:56.968Z,48.20
2022-11-14T22:57:23.400Z,48.00
2022-11-14T22:59:49.820Z,48.40
2022-11-14T23:04:43.247Z,48.10
2022-11-14T23:07:09.802Z,48.20
2022-11-14T23:09:36.304Z,48.00
2022-11-14T23:12:02.760Z,49.00
2022-11-14T23:16:56.169Z,47.60
2022-11-14T23:19:22.609Z,50.00
2022-11-14T23:21:49.064Z,47.90
2022-11-14T23:24:15.503Z,48.60
2022-11-14T23:26:41.934Z,48.00
2022-11-14T23:29:08.371Z,48.00
2022-11-14T23:31:34.819Z,48.20
2022-11-14T23:34:01.259Z,48.30
2022-11-14T23:36:27.686Z,47.50
2022-11-14T23:38:54.115Z,47.50
2022-11-14T23:43:47.646Z,48.70
2022-11-14T23:46:14.134Z,48.60
2022-11-14T23:51:07.559Z,48.10
2022-11-14T23:53:34.181Z,47.90
2022-11-14T23:58:27.736Z,47.30
